Time;durP1;ratioP1;P1;durP2;ratioP2;P2;SDS_P1;SDS_P2;PMS_P1;PMS_P2;Temp;Humidity;BMP_temperature;BMP_pressure;BME280_temperature;BME280_humidity;BME280_pressure;Samples;Min_cycle;Max_cycle;Signal;HPM_P1;HPM_P2
2021/07/28 00:02:03;;;;;;;0.08;0.00;;;;;;;;;;10388350;28;20414;-25
2021/07/28 00:07:06;;;;;;;0.10;0.05;;;;;;;;;;10390194;28;20044;-21
2021/07/28 00:12:10;;;;;;;0.08;0.00;;;;;;;;;;10391630;28;20049;-22
2021/07/28 00:17:13;;;;;;;0.00;0.00;;;;;;;;;;10394614;28;20418;-22
2021/07/28 00:27:38;;;;;;;0.30;0.10;;;;;;;;;;10417781;28;20041;-19
2021/07/28 00:32:41;;;;;;;0.10;0.00;;;;;;;;;;10432588;28;20065;-19
2021/07/28 00:37:45;;;;;;;0.10;0.10;;;;;;;;;;10434166;28;20056;-19
2021/07/28 00:42:49;;;;;;;0.10;0.10;;;;;;;;;;10444499;28;20033;-18
2021/07/28 00:47:51;;;;;;;0.10;0.10;;;;;;;;;;10433187;28;20037;-19
2021/07/28 00:52:54;;;;;;;0.10;0.10;;;;;;;;;;10440653;28;20033;-19
2021/07/28 00:57:59;;;;;;;0.13;0.10;;;;;;;;;;10382283;28;20053;-18
2021/07/28 01:03:01;;;;;;;0.10;0.10;;;;;;;;;;10424691;28;20056;-19
2021/07/28 01:08:05;;;;;;;0.10;0.10;;;;;;;;;;10401195;28;20549;-19
2021/07/28 01:13:09;;;;;;;0.93;0.17;;;;;;;;;;10379355;28;20060;-19
2021/07/28 01:18:13;;;;;;;0.10;0.10;;;;;;;;;;10380520;28;20050;-19
2021/07/28 01:23:20;;;;;;;0.47;0.10;;;;;;;;;;10388817;28;20054;-21
2021/07/28 01:28:23;;;;;;;0.20;0.20;;;;;;;;;;10369835;28;20050;-21
2021/07/28 01:33:27;;;;;;;0.10;0.10;;;;;;;;;;10413853;28;20107;-21
2021/07/28 01:38:31;;;;;;;0.20;0.20;;;;;;;;;;10422858;28;20077;-21
2021/07/28 01:43:34;;;;;;;0.55;0.13;;;;;;;;;;10440503;28;20042;-21
2021/07/28 01:48:37;;;;;;;0.17;0.10;;;;;;;;;;10421933;28;20051;-21
2021/07/28 01:53:43;;;;;;;0.40;0.20;;;;;;;;;;10432081;28;20376;-21
2021/07/28 01:58:53;;;;;;;0.10;0.10;;;;;;;;;;10425068;28;20040;-21
2021/07/28 02:03:58;;;;;;;0.10;0.10;;;;;;;;;;10429497;28;20047;-21
2021/07/28 02:09:02;;;;;;;0.10;0.10;;;;;;;;;;10437570;28;20041;-21
2021/07/28 02:14:04;;;;;;;0.10;0.10;;;;;;;;;;10420499;28;20056;-21
2021/07/28 02:19:08;;;;;;;0.40;0.20;;;;;;;;;;10434742;28;20512;-21
2021/07/28 02:24:13;;;;;;;0.20;0.20;;;;;;;;;;10428908;28;20052;-21
2021/07/28 02:29:16;;;;;;;0.70;0.20;;;;;;;;;;10430212;28;20045;-21
2021/07/28 02:34:18;;;;;;;0.10;0.10;;;;;;;;;;10431223;28;20045;-21
2021/07/28 02:39:22;;;;;;;0.20;0.20;;;;;;;;;;10423265;28;20072;-21
2021/07/28 02:44:25;;;;;;;0.10;0.10;;;;;;;;;;10403456;28;20041;-22
2021/07/28 02:49:27;;;;;;;0.10;0.10;;;;;;;;;;10412431;28;20059;-21
2021/07/28 02:54:32;;;;;;;0.10;0.10;;;;;;;;;;10419943;28;20030;-21
2021/07/28 02:59:34;;;;;;;0.10;0.10;;;;;;;;;;10355467;28;20056;-21
2021/07/28 03:04:37;;;;;;;0.10;0.10;;;;;;;;;;10365394;28;20062;-22
2021/07/28 03:09:41;;;;;;;0.43;0.22;;;;;;;;;;10395596;28;20366;-20
2021/07/28 03:14:44;;;;;;;0.17;0.17;;;;;;;;;;10410541;28;20044;-20
2021/07/28 03:19:46;;;;;;;0.45;0.10;;;;;;;;;;10393547;28;20501;-21
2021/07/28 03:24:50;;;;;;;0.15;0.10;;;;;;;;;;10357725;28;20376;-20
2021/07/28 03:29:54;;;;;;;0.30;0.20;;;;;;;;;;10385268;28;20052;-19
2021/07/28 03:34:57;;;;;;;0.20;0.20;;;;;;;;;;10370916;28;20046;-20
2021/07/28 03:40:01;;;;;;;0.10;0.10;;;;;;;;;;10409079;28;20055;-20
2021/07/28 03:45:04;;;;;;;0.38;0.28;;;;;;;;;;10424733;28;20061;-20
2021/07/28 03:50:07;;;;;;;0.10;0.10;;;;;;;;;;10431990;28;20057;-19
2021/07/28 03:55:12;;;;;;;0.20;0.17;;;;;;;;;;10413668;28;20052;-20
2021/07/28 04:00:15;;;;;;;0.20;0.10;;;;;;;;;;10425236;28;20056;-20
2021/07/28 04:05:18;;;;;;;0.10;0.10;;;;;;;;;;10428405;28;20045;-19
2021/07/28 04:10:22;;;;;;;0.17;0.17;;;;;;;;;;10436403;28;20478;-19
2021/07/28 04:15:24;;;;;;;0.10;0.10;;;;;;;;;;10428591;28;20045;-19
2021/07/28 04:20:27;;;;;;;0.20;0.15;;;;;;;;;;10432552;28;20057;-20
2021/07/28 04:25:31;;;;;;;0.47;0.20;;;;;;;;;;10416751;28;20052;-20
2021/07/28 04:30:34;;;;;;;0.70;0.20;;;;;;;;;;10396935;28;20414;-20
2021/07/28 04:35:36;;;;;;;0.10;0.10;;;;;;;;;;10395243;28;20069;-19
2021/07/28 04:40:40;;;;;;;0.10;0.10;;;;;;;;;;10394810;28;20052;-20
2021/07/28 04:45:43;;;;;;;0.15;0.15;;;;;;;;;;10396326;28;20412;-20
2021/07/28 04:50:46;;;;;;;0.20;0.20;;;;;;;;;;10395416;28;20049;-19
2021/07/28 04:55:53;;;;;;;0.20;0.20;;;;;;;;;;10395595;28;20066;-19
2021/07/28 05:00:57;;;;;;;0.20;0.20;;;;;;;;;;10396631;28;20045;-20
2021/07/28 05:06:00;;;;;;;0.10;0.10;;;;;;;;;;10403372;28;20491;-20
2021/07/28 05:11:04;;;;;;;0.17;0.17;;;;;;;;;;10403066;28;20037;-21
2021/07/28 05:16:06;;;;;;;0.15;0.15;;;;;;;;;;10383736;28;20056;-20
2021/07/28 05:21:09;;;;;;;0.10;0.10;;;;;;;;;;10401925;28;20050;-20
2021/07/28 05:26:13;;;;;;;0.10;0.10;;;;;;;;;;10398922;28;20057;-20
2021/07/28 05:31:16;;;;;;;0.10;0.10;;;;;;;;;;10400035;28;20048;-20
2021/07/28 05:36:19;;;;;;;0.15;0.15;;;;;;;;;;10399865;28;20493;-20
2021/07/28 05:41:23;;;;;;;0.10;0.10;;;;;;;;;;10394788;28;20030;-20
2021/07/28 05:46:25;;;;;;;0.32;0.10;;;;;;;;;;10399379;28;20514;-19
2021/07/28 05:51:28;;;;;;;0.10;0.10;;;;;;;;;;10400016;28;20414;-19
2021/07/28 05:56:32;;;;;;;0.00;0.00;;;;;;;;;;10399124;28;20049;-20
2021/07/28 06:01:35;;;;;;;0.15;0.10;;;;;;;;;;10396228;28;20055;-19
2021/07/28 06:06:38;;;;;;;0.10;0.10;;;;;;;;;;10399336;28;20053;-20
2021/07/28 06:11:42;;;;;;;0.10;0.10;;;;;;;;;;10395523;28;20041;-21
2021/07/28 06:16:45;;;;;;;0.77;0.20;;;;;;;;;;10398471;28;20049;-20
2021/07/28 06:21:48;;;;;;;0.10;0.10;;;;;;;;;;10399305;28;20057;-20
2021/07/28 06:26:51;;;;;;;0.10;0.10;;;;;;;;;;10397888;28;20059;-20
2021/07/28 06:31:54;;;;;;;0.10;0.10;;;;;;;;;;10399173;28;20037;-19
2021/07/28 06:36:57;;;;;;;0.10;0.10;;;;;;;;;;10398246;28;20045;-20
2021/07/28 06:42:01;;;;;;;0.00;0.00;;;;;;;;;;10389988;28;20041;-20
2021/07/28 06:47:04;;;;;;;0.00;0.00;;;;;;;;;;10396581;28;20111;-20
2021/07/28 06:52:06;;;;;;;0.10;0.10;;;;;;;;;;10397624;28;20045;-20
2021/07/28 06:57:10;;;;;;;0.17;0.10;;;;;;;;;;10379440;28;20044;-20
2021/07/28 07:02:13;;;;;;;0.10;0.10;;;;;;;;;;10398353;28;20512;-21
2021/07/28 07:07:16;;;;;;;0.10;0.10;;;;;;;;;;10397653;28;20062;-20
2021/07/28 07:12:20;;;;;;;0.00;0.00;;;;;;;;;;10370591;28;20038;-19
2021/07/28 07:17:23;;;;;;;0.00;0.00;;;;;;;;;;10397533;28;20092;-20
2021/07/28 07:22:26;;;;;;;0.00;0.00;;;;;;;;;;10396016;28;20052;-20
2021/07/28 07:27:30;;;;;;;0.00;0.00;;;;;;;;;;10373303;28;20049;-20
2021/07/28 07:32:33;;;;;;;0.00;0.00;;;;;;;;;;10397041;28;20057;-21
2021/07/28 07:37:36;;;;;;;0.45;0.00;;;;;;;;;;10396917;28;20115;-20
2021/07/28 07:42:40;;;;;;;0.00;0.00;;;;;;;;;;10395331;28;20045;-21
2021/07/28 07:47:42;;;;;;;0.20;0.00;;;;;;;;;;10395777;28;20487;-20
2021/07/28 07:52:45;;;;;;;0.00;0.00;;;;;;;;;;10395157;28;20743;-20
2021/07/28 07:57:49;;;;;;;0.00;0.00;;;;;;;;;;10394855;28;20049;-20
2021/07/28 08:02:51;;;;;;;0.00;0.00;;;;;;;;;;10395736;28;20037;-20
2021/07/28 08:07:54;;;;;;;0.00;0.00;;;;;;;;;;10395270;28;20133;-20
2021/07/28 08:12:58;;;;;;;0.15;0.00;;;;;;;;;;10394785;28;20058;-20
2021/07/28 08:18:01;;;;;;;0.10;0.10;;;;;;;;;;10394781;28;20038;-20
2021/07/28 08:23:04;;;;;;;0.10;0.00;;;;;;;;;;10396355;28;20133;-20
2021/07/28 08:28:11;;;;;;;0.00;0.00;;;;;;;;;;10396303;28;20586;-20
2021/07/28 08:33:13;;;;;;;0.00;0.00;;;;;;;;;;10397945;28;20033;-20
2021/07/28 08:38:18;;;;;;;0.00;0.00;;;;;;;;;;10401876;28;20048;-20
2021/07/28 08:43:23;;;;;;;0.00;0.00;;;;;;;;;;10400056;28;20133;-20
2021/07/28 08:48:27;;;;;;;0.00;0.00;;;;;;;;;;10401502;28;20058;-20
2021/07/28 08:53:29;;;;;;;0.00;0.00;;;;;;;;;;10402668;28;20037;-20
2021/07/28 08:58:33;;;;;;;0.00;0.00;;;;;;;;;;10410372;28;20052;-20
2021/07/28 09:03:36;;;;;;;0.00;0.00;;;;;;;;;;10401794;28;21199;-20
2021/07/28 09:08:40;;;;;;;0.00;0.00;;;;;;;;;;10388328;28;20046;-20
2021/07/28 09:13:44;;;;;;;0.00;0.00;;;;;;;;;;10364187;28;20121;-20
2021/07/28 09:18:48;;;;;;;0.00;0.00;;;;;;;;;;10401918;28;20061;-20
2021/07/28 09:23:53;;;;;;;0.00;0.00;;;;;;;;;;10385753;28;20041;-20
2021/07/28 09:29:03;;;;;;;0.00;0.00;;;;;;;;;;10401532;28;20050;-20
2021/07/28 09:34:08;;;;;;;0.00;0.00;;;;;;;;;;10399062;28;20037;-20
2021/07/28 09:39:22;;;;;;;0.00;0.00;;;;;;;;;;10391334;28;20041;-20
2021/07/28 09:44:27;;;;;;;0.00;0.00;;;;;;;;;;10399391;28;20053;-20
2021/07/28 09:49:30;;;;;;;0.00;0.00;;;;;;;;;;10400121;28;20064;-20
2021/07/28 09:54:33;;;;;;;0.00;0.00;;;;;;;;;;10394938;28;20701;-20
2021/07/28 09:59:37;;;;;;;0.10;0.10;;;;;;;;;;10397184;28;20041;-20
2021/07/28 10:04:43;;;;;;;0.00;0.00;;;;;;;;;;10398065;28;20410;-20
2021/07/28 10:09:54;;;;;;;0.00;0.00;;;;;;;;;;10396582;28;20044;-21
2021/07/28 10:14:58;;;;;;;0.00;0.00;;;;;;;;;;10398946;28;20041;-20
2021/07/28 10:20:01;;;;;;;0.00;0.00;;;;;;;;;;10399030;28;20065;-20
2021/07/28 10:25:13;;;;;;;0.10;0.00;;;;;;;;;;10398598;28;20061;-20
2021/07/28 10:30:20;;;;;;;0.00;0.00;;;;;;;;;;10396434;28;20053;-20
2021/07/28 10:35:24;;;;;;;0.20;0.00;;;;;;;;;;10398367;28;20068;-20
2021/07/28 10:40:47;;;;;;;0.00;0.00;;;;;;;;;;10397295;28;20045;-20
2021/07/28 10:45:55;;;;;;;0.00;0.00;;;;;;;;;;10387524;28;20133;-20
2021/07/28 10:50:58;;;;;;;0.00;0.00;;;;;;;;;;10397686;28;20368;-20
2021/07/28 10:56:09;;;;;;;0.00;0.00;;;;;;;;;;10398394;28;20060;-20
2021/07/28 11:01:13;;;;;;;0.00;0.00;;;;;;;;;;10395523;28;20100;-20
2021/07/28 11:06:34;;;;;;;0.00;0.00;;;;;;;;;;10380460;28;20077;-20
2021/07/28 11:11:37;;;;;;;0.00;0.00;;;;;;;;;;10400785;28;20072;-20
2021/07/28 11:16:41;;;;;;;0.10;0.00;;;;;;;;;;10400507;28;20052;-20
2021/07/28 11:21:44;;;;;;;0.10;0.00;;;;;;;;;;10395467;28;20737;-20
2021/07/28 11:26:46;;;;;;;0.00;0.00;;;;;;;;;;10396992;28;20068;-20
2021/07/28 11:31:52;;;;;;;0.00;0.00;;;;;;;;;;10396997;28;20049;-20
2021/07/28 11:37:20;;;;;;;0.00;0.00;;;;;;;;;;10395795;28;20041;-20
2021/07/28 11:42:26;;;;;;;0.00;0.00;;;;;;;;;;10389245;28;20136;-19
2021/07/28 11:47:31;;;;;;;0.00;0.00;;;;;;;;;;10396365;28;20064;-20
2021/07/28 11:52:46;;;;;;;0.00;0.00;;;;;;;;;;10393534;28;20383;-21
2021/07/28 11:57:49;;;;;;;0.00;0.00;;;;;;;;;;10390073;28;20041;-20
2021/07/28 12:02:52;;;;;;;0.00;0.00;;;;;;;;;;10423431;28;20404;-20
2021/07/28 12:07:55;;;;;;;0.00;0.00;;;;;;;;;;10438900;28;20059;-20
2021/07/28 12:13:18;;;;;;;0.05;0.00;;;;;;;;;;10440599;28;20048;-21
2021/07/28 12:18:38;;;;;;;0.00;0.00;;;;;;;;;;10444671;28;20045;-20
2021/07/28 12:23:51;;;;;;;0.00;0.00;;;;;;;;;;10443565;28;20510;-20
2021/07/28 12:28:53;;;;;;;0.00;0.00;;;;;;;;;;10442346;28;20037;-20
2021/07/28 12:34:17;;;;;;;0.00;0.00;;;;;;;;;;10444070;28;20047;-20
2021/07/28 12:39:20;;;;;;;0.00;0.00;;;;;;;;;;10443424;28;20547;-20
2021/07/28 12:44:23;;;;;;;0.00;0.00;;;;;;;;;;10441586;28;20381;-20
2021/07/28 12:49:27;;;;;;;0.00;0.00;;;;;;;;;;10443241;28;20044;-20
2021/07/28 12:54:29;;;;;;;0.05;0.00;;;;;;;;;;10443295;28;20060;-20
2021/07/28 12:59:49;;;;;;;0.00;0.00;;;;;;;;;;10441044;28;20540;-20
2021/07/28 13:04:56;;;;;;;0.00;0.00;;;;;;;;;;10453954;28;20045;-20
2021/07/28 13:09:59;;;;;;;0.00;0.00;;;;;;;;;;10439095;28;20053;-20
2021/07/28 13:15:02;;;;;;;0.00;0.00;;;;;;;;;;10440803;28;20037;-20
2021/07/28 13:20:06;;;;;;;0.00;0.00;;;;;;;;;;10438896;28;20128;-20
2021/07/28 13:25:10;;;;;;;0.00;0.00;;;;;;;;;;10438584;28;20033;-20
2021/07/28 13:30:13;;;;;;;0.00;0.00;;;;;;;;;;10439746;28;20410;-24
2021/07/28 13:35:17;;;;;;;0.00;0.00;;;;;;;;;;10440433;28;20048;-23
2021/07/28 13:40:20;;;;;;;0.00;0.00;;;;;;;;;;10439403;28;20057;-23
2021/07/28 13:45:24;;;;;;;0.00;0.00;;;;;;;;;;10439343;28;20040;-23
2021/07/28 13:50:28;;;;;;;0.00;0.00;;;;;;;;;;10440710;28;20041;-23
2021/07/28 13:55:31;;;;;;;0.00;0.00;;;;;;;;;;10440397;28;20401;-24
2021/07/28 14:00:33;;;;;;;0.00;0.00;;;;;;;;;;10440094;28;20045;-23
2021/07/28 14:05:38;;;;;;;0.10;0.00;;;;;;;;;;10437951;28;20445;-24
2021/07/28 14:10:40;;;;;;;0.00;0.00;;;;;;;;;;10440302;28;20052;-23
2021/07/28 14:15:43;;;;;;;0.00;0.00;;;;;;;;;;10439937;28;20049;-23
2021/07/28 14:20:47;;;;;;;0.00;0.00;;;;;;;;;;10446530;28;20045;-23
2021/07/28 14:25:50;;;;;;;0.20;0.00;;;;;;;;;;10433583;28;20045;-24
2021/07/28 14:30:53;;;;;;;0.00;0.00;;;;;;;;;;10437279;28;20070;-23
2021/07/28 14:35:58;;;;;;;0.00;0.00;;;;;;;;;;10437229;28;20486;-23
2021/07/28 14:41:01;;;;;;;0.00;0.00;;;;;;;;;;10438570;28;20045;-23
2021/07/28 14:46:03;;;;;;;0.00;0.00;;;;;;;;;;10438630;28;20052;-23
2021/07/28 14:51:08;;;;;;;0.00;0.00;;;;;;;;;;10437037;28;20051;-23
2021/07/28 14:56:11;;;;;;;0.00;0.00;;;;;;;;;;10439176;28;20037;-24
2021/07/28 15:01:14;;;;;;;0.00;0.00;;;;;;;;;;10438885;28;20041;-24
2021/07/28 15:06:18;;;;;;;0.00;0.00;;;;;;;;;;10438707;28;20041;-24
2021/07/28 15:11:21;;;;;;;0.00;0.00;;;;;;;;;;10421399;28;20049;-24
2021/07/28 15:16:23;;;;;;;0.00;0.00;;;;;;;;;;10436972;28;20049;-24
2021/07/28 15:21:28;;;;;;;0.00;0.00;;;;;;;;;;10437967;28;20384;-24
2021/07/28 15:26:30;;;;;;;0.00;0.00;;;;;;;;;;10436246;28;20048;-24
2021/07/28 15:31:33;;;;;;;0.00;0.00;;;;;;;;;;10437409;28;20493;-24
2021/07/28 15:36:37;;;;;;;0.00;0.00;;;;;;;;;;10437168;28;20440;-24
2021/07/28 15:41:41;;;;;;;0.00;0.00;;;;;;;;;;10435160;28;20772;-24
2021/07/28 15:46:44;;;;;;;0.00;0.00;;;;;;;;;;10431316;28;20041;-25
2021/07/28 15:51:48;;;;;;;0.00;0.00;;;;;;;;;;10435374;28;20055;-24
2021/07/28 15:56:51;;;;;;;0.00;0.00;;;;;;;;;;10436363;28;20044;-23
2021/07/28 16:01:55;;;;;;;0.00;0.00;;;;;;;;;;10433019;28;20041;-24
2021/07/28 16:06:59;;;;;;;0.00;0.00;;;;;;;;;;10435416;28;20047;-25
2021/07/28 16:12:02;;;;;;;0.00;0.00;;;;;;;;;;10436171;28;20047;-24
2021/07/28 16:17:22;;;;;;;0.20;0.00;;;;;;;;;;10429928;28;20561;-25
2021/07/28 16:22:30;;;;;;;0.00;0.00;;;;;;;;;;10433653;28;20072;-23
2021/07/28 16:27:34;;;;;;;0.00;0.00;;;;;;;;;;10435611;28;20045;-23
2021/07/28 16:32:36;;;;;;;0.00;0.00;;;;;;;;;;10434627;28;20041;-24
2021/07/28 16:37:40;;;;;;;0.00;0.00;;;;;;;;;;10435071;28;20041;-24
2021/07/28 16:42:43;;;;;;;0.10;0.00;;;;;;;;;;10434808;28;20053;-24
2021/07/28 16:47:46;;;;;;;0.00;0.00;;;;;;;;;;10435052;28;20047;-24
2021/07/28 16:52:50;;;;;;;0.22;0.00;;;;;;;;;;10434412;28;20044;-24
2021/07/28 16:57:53;;;;;;;0.00;0.00;;;;;;;;;;10440317;28;20044;-25
2021/07/28 17:02:57;;;;;;;0.00;0.00;;;;;;;;;;10441821;28;20047;-24
2021/07/28 17:08:02;;;;;;;0.43;0.00;;;;;;;;;;10439182;28;20152;-24
2021/07/28 17:13:05;;;;;;;0.00;0.00;;;;;;;;;;10400767;28;20041;-23
2021/07/28 17:18:09;;;;;;;0.03;0.00;;;;;;;;;;10436164;28;20225;-22
2021/07/28 17:23:13;;;;;;;0.00;0.00;;;;;;;;;;10447482;28;20061;-22
2021/07/28 17:28:16;;;;;;;0.00;0.00;;;;;;;;;;10452997;28;20052;-23
2021/07/28 17:33:18;;;;;;;0.00;0.00;;;;;;;;;;10449681;28;20049;-23
2021/07/28 17:38:24;;;;;;;0.10;0.00;;;;;;;;;;10451644;28;20037;-23
2021/07/28 17:43:27;;;;;;;0.00;0.00;;;;;;;;;;10451585;28;20051;-22
2021/07/28 17:48:29;;;;;;;0.10;0.10;;;;;;;;;;10460640;28;20048;-22
2021/07/28 17:53:33;;;;;;;0.00;0.00;;;;;;;;;;10454547;28;20047;-23
2021/07/28 17:58:36;;;;;;;0.00;0.00;;;;;;;;;;10452441;28;20041;-22
2021/07/28 18:03:55;;;;;;;0.00;0.00;;;;;;;;;;10460723;28;20059;-23
2021/07/28 18:08:59;;;;;;;0.00;0.00;;;;;;;;;;10445358;28;20045;-23
2021/07/28 18:14:01;;;;;;;0.00;0.00;;;;;;;;;;10448188;28;20565;-23
2021/07/28 18:19:05;;;;;;;0.00;0.00;;;;;;;;;;10447979;28;20094;-22
2021/07/28 18:24:09;;;;;;;0.00;0.00;;;;;;;;;;10449249;28;20064;-23
2021/07/28 18:29:12;;;;;;;0.00;0.00;;;;;;;;;;10442274;28;20693;-23
2021/07/28 18:34:15;;;;;;;0.00;0.00;;;;;;;;;;10446515;28;20051;-22
2021/07/28 18:39:19;;;;;;;0.00;0.00;;;;;;;;;;10443163;28;20054;-23
2021/07/28 18:44:22;;;;;;;0.17;0.00;;;;;;;;;;10450746;28;20404;-23
2021/07/28 18:49:25;;;;;;;0.00;0.00;;;;;;;;;;10452410;28;20067;-23
2021/07/28 18:54:29;;;;;;;0.00;0.00;;;;;;;;;;10452700;28;20052;-23
2021/07/28 18:59:31;;;;;;;0.00;0.00;;;;;;;;;;10451905;28;20041;-23
2021/07/28 19:04:34;;;;;;;0.00;0.00;;;;;;;;;;10450137;28;20063;-22
2021/07/28 19:09:38;;;;;;;0.00;0.00;;;;;;;;;;10447791;28;20047;-23
2021/07/28 19:14:41;;;;;;;0.00;0.00;;;;;;;;;;10449181;28;20428;-24
2021/07/28 19:19:44;;;;;;;0.00;0.00;;;;;;;;;;10444877;28;20486;-24
2021/07/28 19:24:52;;;;;;;0.00;0.00;;;;;;;;;;10441550;28;20079;-24
2021/07/28 19:29:55;;;;;;;0.00;0.00;;;;;;;;;;10438651;28;20390;-25
2021/07/28 19:34:57;;;;;;;0.00;0.00;;;;;;;;;;10440669;28;20048;-23
2021/07/28 19:40:02;;;;;;;0.00;0.00;;;;;;;;;;10448199;28;20052;-24
2021/07/28 19:45:05;;;;;;;0.00;0.00;;;;;;;;;;10438455;28;20049;-24
2021/07/28 19:50:08;;;;;;;0.00;0.00;;;;;;;;;;10443341;28;20049;-24
2021/07/28 19:55:12;;;;;;;0.00;0.00;;;;;;;;;;10446045;28;20057;-24
2021/07/28 20:00:15;;;;;;;0.00;0.00;;;;;;;;;;10439981;28;20061;-24
2021/07/28 20:05:18;;;;;;;0.00;0.00;;;;;;;;;;10438965;28;20375;-24
2021/07/28 20:10:22;;;;;;;0.00;0.00;;;;;;;;;;10437831;28;20052;-24
2021/07/28 20:15:27;;;;;;;0.00;0.00;;;;;;;;;;10430277;28;20108;-24
2021/07/28 20:20:30;;;;;;;0.00;0.00;;;;;;;;;;10437450;28;20065;-24
2021/07/28 20:25:34;;;;;;;0.00;0.00;;;;;;;;;;10433128;28;20478;-25
2021/07/28 20:30:37;;;;;;;0.00;0.00;;;;;;;;;;10462426;28;20414;-23
2021/07/28 20:35:40;;;;;;;0.00;0.00;;;;;;;;;;10444014;28;20505;-23
2021/07/28 20:40:44;;;;;;;0.00;0.00;;;;;;;;;;10447093;28;20037;-24
2021/07/28 20:45:47;;;;;;;0.00;0.00;;;;;;;;;;10445025;28;20045;-24
2021/07/28 20:50:49;;;;;;;0.25;0.00;;;;;;;;;;10439474;28;20142;-23
2021/07/28 20:55:54;;;;;;;0.00;0.00;;;;;;;;;;10451936;28;20036;-24
2021/07/28 21:00:57;;;;;;;0.10;0.00;;;;;;;;;;10452194;28;20490;-24
2021/07/28 21:06:00;;;;;;;0.00;0.00;;;;;;;;;;10458096;28;20051;-23
2021/07/28 21:11:05;;;;;;;0.00;0.00;;;;;;;;;;10455486;28;20041;-24
2021/07/28 21:16:07;;;;;;;0.00;0.00;;;;;;;;;;10460692;28;20041;-23
2021/07/28 21:21:10;;;;;;;0.00;0.00;;;;;;;;;;10459648;28;20686;-24
2021/07/28 21:26:14;;;;;;;0.00;0.00;;;;;;;;;;10452062;28;20041;-23
2021/07/28 21:31:17;;;;;;;0.00;0.00;;;;;;;;;;10452055;28;20074;-24
2021/07/28 21:36:20;;;;;;;0.03;0.03;;;;;;;;;;10457449;28;20393;-23
2021/07/28 21:41:25;;;;;;;0.00;0.00;;;;;;;;;;10448428;28;20549;-24
2021/07/28 21:46:27;;;;;;;0.00;0.00;;;;;;;;;;10447227;28;20041;-25
2021/07/28 21:51:36;;;;;;;0.00;0.00;;;;;;;;;;10448681;28;20464;-23
2021/07/28 21:56:43;;;;;;;0.00;0.00;;;;;;;;;;10445375;28;20037;-23
2021/07/28 22:01:46;;;;;;;0.10;0.00;;;;;;;;;;10441494;28;20255;-23
2021/07/28 22:06:49;;;;;;;0.00;0.00;;;;;;;;;;10445561;28;20056;-24
2021/07/28 22:11:54;;;;;;;0.00;0.00;;;;;;;;;;10440492;28;20041;-23
2021/07/28 22:16:56;;;;;;;0.00;0.00;;;;;;;;;;10439731;28;20049;-24
2021/07/28 22:21:59;;;;;;;0.00;0.00;;;;;;;;;;10437109;28;20060;-24
2021/07/28 22:27:03;;;;;;;0.00;0.00;;;;;;;;;;10437678;28;20501;-23
2021/07/28 22:32:06;;;;;;;0.00;0.00;;;;;;;;;;10454996;28;20066;-24
2021/07/28 22:37:09;;;;;;;0.00;0.00;;;;;;;;;;10449110;28;20044;-24
2021/07/28 22:42:13;;;;;;;0.00;0.00;;;;;;;;;;10471275;28;20049;-23
2021/07/28 22:47:20;;;;;;;0.00;0.00;;;;;;;;;;10465944;28;20051;-23
2021/07/28 22:57:44;;;;;;;0.10;0.00;;;;;;;;;;10464854;28;20045;-23
2021/07/28 23:08:07;;;;;;;0.00;0.00;;;;;;;;;;10417819;28;20057;-23
2021/07/28 23:13:11;;;;;;;0.00;0.00;;;;;;;;;;10449741;28;20045;-22
2021/07/28 23:18:17;;;;;;;0.00;0.00;;;;;;;;;;10455017;28;20032;-22
2021/07/28 23:23:20;;;;;;;0.00;0.00;;;;;;;;;;10454050;28;20576;-22
2021/07/28 23:28:24;;;;;;;0.00;0.00;;;;;;;;;;10452148;28;20407;-23
2021/07/28 23:33:26;;;;;;;0.00;0.00;;;;;;;;;;10448816;28;20076;-23
2021/07/28 23:38:29;;;;;;;0.00;0.00;;;;;;;;;;10453047;28;20053;-24
2021/07/28 23:43:33;;;;;;;0.00;0.00;;;;;;;;;;10444414;28;20896;-23
2021/07/28 23:48:36;;;;;;;0.00;0.00;;;;;;;;;;10441659;28;20486;-23
2021/07/28 23:53:39;;;;;;;0.03;0.03;;;;;;;;;;10441513;28;20148;-23
2021/07/28 23:58:43;;;;;;;0.00;0.00;;;;;;;;;;10443946;28;20132;-24
